sensor_id;sensor_type;location;lat;lon;timestamp;pressure;altitude;pressure_sealevel;temperature;humidity
34237;BME280;20501;45.956;13.632;2023-05-29T00:00:44;100510.50;;;17.40;67.12
34237;BME280;20501;45.956;13.632;2023-05-29T00:03:10;100512.84;;;17.43;66.75
34237;BME280;20501;45.956;13.632;2023-05-29T00:05:35;100514.53;;;17.29;67.57
34237;BME280;20501;45.956;13.632;2023-05-29T00:08:01;100517.06;;;17.16;68.55
34237;BME280;20501;45.956;13.632;2023-05-29T00:10:27;100512.81;;;16.90;69.28
34237;BME280;20501;45.956;13.632;2023-05-29T00:12:52;100507.63;;;17.18;69.41
34237;BME280;20501;45.956;13.632;2023-05-29T00:15:18;100511.72;;;16.76;69.93
34237;BME280;20501;45.956;13.632;2023-05-29T00:17:43;100508.09;;;16.84;69.66
34237;BME280;20501;45.956;13.632;2023-05-29T00:20:09;100510.97;;;16.67;69.87
34237;BME280;20501;45.956;13.632;2023-05-29T00:22:35;100514.22;;;16.86;68.39
34237;BME280;20501;45.956;13.632;2023-05-29T00:25:07;100505.88;;;17.11;67.77
34237;BME280;20501;45.956;13.632;2023-05-29T00:27:33;100505.34;;;17.07;68.04
34237;BME280;20501;45.956;13.632;2023-05-29T00:29:59;100507.34;;;16.90;69.22
34237;BME280;20501;45.956;13.632;2023-05-29T00:32:25;100511.56;;;16.78;69.47
34237;BME280;20501;45.956;13.632;2023-05-29T00:34:51;100501.31;;;17.03;67.66
34237;BME280;20501;45.956;13.632;2023-05-29T00:37:16;100497.91;;;17.01;68.39
34237;BME280;20501;45.956;13.632;2023-05-29T00:39:42;100505.09;;;16.79;68.33
34237;BME280;20501;45.956;13.632;2023-05-29T00:42:08;100500.53;;;16.71;69.13
34237;BME280;20501;45.956;13.632;2023-05-29T00:44:33;100495.38;;;16.76;69.00
34237;BME280;20501;45.956;13.632;2023-05-29T00:46:59;100503.00;;;16.81;68.65
34237;BME280;20501;45.956;13.632;2023-05-29T00:49:25;100494.28;;;16.62;69.21
34237;BME280;20501;45.956;13.632;2023-05-29T00:51:51;100493.75;;;16.67;68.91
34237;BME280;20501;45.956;13.632;2023-05-29T00:54:21;100497.41;;;16.74;68.67
34237;BME280;20501;45.956;13.632;2023-05-29T00:56:48;100491.66;;;16.92;67.52
34237;BME280;20501;45.956;13.632;2023-05-29T00:59:14;100497.22;;;16.61;69.25
34237;BME280;20501;45.956;13.632;2023-05-29T01:01:41;100490.31;;;16.73;67.75
34237;BME280;20501;45.956;13.632;2023-05-29T01:04:09;100498.47;;;16.73;67.58
34237;BME280;20501;45.956;13.632;2023-05-29T01:06:38;100500.47;;;16.79;67.37
34237;BME280;20501;45.956;13.632;2023-05-29T01:09:04;100495.59;;;16.90;66.98
34237;BME280;20501;45.956;13.632;2023-05-29T01:14:19;100493.66;;;16.75;67.20
34237;BME280;20501;45.956;13.632;2023-05-29T01:16:59;100490.28;;;16.50;68.56
34237;BME280;20501;45.956;13.632;2023-05-29T01:22:12;100499.91;;;16.84;66.45
34237;BME280;20501;45.956;13.632;2023-05-29T01:24:58;100499.66;;;16.70;67.19
34237;BME280;20501;45.956;13.632;2023-05-29T01:27:30;100499.00;;;16.68;67.33
34237;BME280;20501;45.956;13.632;2023-05-29T01:29:58;100496.09;;;16.70;66.97
34237;BME280;20501;45.956;13.632;2023-05-29T01:32:24;100494.75;;;16.89;65.72
34237;BME280;20501;45.956;13.632;2023-05-29T01:34:51;100499.84;;;17.15;66.31
34237;BME280;20501;45.956;13.632;2023-05-29T01:37:16;100491.78;;;16.99;65.23
34237;BME280;20501;45.956;13.632;2023-05-29T01:39:42;100495.97;;;17.10;66.06
34237;BME280;20501;45.956;13.632;2023-05-29T01:42:08;100493.22;;;16.95;65.05
34237;BME280;20501;45.956;13.632;2023-05-29T01:44:34;100496.06;;;16.93;64.98
34237;BME280;20501;45.956;13.632;2023-05-29T01:47:02;100493.34;;;16.93;64.52
34237;BME280;20501;45.956;13.632;2023-05-29T01:49:28;100490.50;;;16.95;64.92
34237;BME280;20501;45.956;13.632;2023-05-29T01:51:55;100487.22;;;17.14;65.36
34237;BME280;20501;45.956;13.632;2023-05-29T01:54:20;100487.13;;;17.08;64.32
34237;BME280;20501;45.956;13.632;2023-05-29T01:56:46;100480.06;;;16.90;65.13
34237;BME280;20501;45.956;13.632;2023-05-29T01:59:12;100486.53;;;16.97;67.80
34237;BME280;20501;45.956;13.632;2023-05-29T02:01:38;100481.06;;;16.74;65.43
34237;BME280;20501;45.956;13.632;2023-05-29T02:04:04;100479.22;;;16.51;67.12
34237;BME280;20501;45.956;13.632;2023-05-29T02:06:30;100479.69;;;16.55;66.62
34237;BME280;20501;45.956;13.632;2023-05-29T02:08:56;100472.75;;;16.91;68.03
34237;BME280;20501;45.956;13.632;2023-05-29T02:11:21;100477.31;;;16.29;67.97
34237;BME280;20501;45.956;13.632;2023-05-29T02:13:47;100472.09;;;16.42;67.16
34237;BME280;20501;45.956;13.632;2023-05-29T02:16:12;100474.53;;;17.22;68.75
34237;BME280;20501;45.956;13.632;2023-05-29T02:18:38;100470.28;;;17.64;67.67
34237;BME280;20501;45.956;13.632;2023-05-29T02:21:04;100475.56;;;16.36;67.35
34237;BME280;20501;45.956;13.632;2023-05-29T02:23:29;100480.16;;;16.59;66.44
34237;BME280;20501;45.956;13.632;2023-05-29T02:25:55;100480.78;;;16.69;66.27
34237;BME280;20501;45.956;13.632;2023-05-29T02:28:20;100479.50;;;16.56;66.89
34237;BME280;20501;45.956;13.632;2023-05-29T02:30:46;100480.22;;;15.96;69.34
34237;BME280;20501;45.956;13.632;2023-05-29T02:33:11;100474.53;;;16.37;69.87
34237;BME280;20501;45.956;13.632;2023-05-29T02:35:37;100468.34;;;16.20;67.26
34237;BME280;20501;45.956;13.632;2023-05-29T02:38:02;100479.69;;;16.55;66.59
34237;BME280;20501;45.956;13.632;2023-05-29T02:40:28;100476.28;;;16.99;65.86
34237;BME280;20501;45.956;13.632;2023-05-29T02:42:53;100484.09;;;17.17;64.98
34237;BME280;20501;45.956;13.632;2023-05-29T02:45:19;100477.63;;;16.57;66.67
34237;BME280;20501;45.956;13.632;2023-05-29T02:47:44;100482.66;;;16.45;67.60
34237;BME280;20501;45.956;13.632;2023-05-29T02:50:10;100487.63;;;16.10;68.13
34237;BME280;20501;45.956;13.632;2023-05-29T02:52:35;100487.81;;;16.40;66.55
34237;BME280;20501;45.956;13.632;2023-05-29T02:55:05;100487.25;;;16.68;67.52
34237;BME280;20501;45.956;13.632;2023-05-29T02:57:31;100484.22;;;16.86;66.80
34237;BME280;20501;45.956;13.632;2023-05-29T02:59:56;100487.19;;;16.53;66.03
34237;BME280;20501;45.956;13.632;2023-05-29T03:02:21;100488.03;;;16.53;66.24
34237;BME280;20501;45.956;13.632;2023-05-29T03:04:47;100493.03;;;16.96;66.68
34237;BME280;20501;45.956;13.632;2023-05-29T03:07:15;100488.91;;;16.54;67.60
34237;BME280;20501;45.956;13.632;2023-05-29T03:09:40;100478.56;;;16.18;68.78
34237;BME280;20501;45.956;13.632;2023-05-29T03:12:06;100491.75;;;16.61;66.21
34237;BME280;20501;45.956;13.632;2023-05-29T03:14:32;100490.63;;;17.16;67.76
34237;BME280;20501;45.956;13.632;2023-05-29T03:17:03;100495.25;;;17.31;68.71
34237;BME280;20501;45.956;13.632;2023-05-29T03:19:29;100491.69;;;16.69;66.04
34237;BME280;20501;45.956;13.632;2023-05-29T03:21:54;100489.19;;;16.36;67.14
34237;BME280;20501;45.956;13.632;2023-05-29T03:24:20;100496.34;;;16.60;66.22
34237;BME280;20501;45.956;13.632;2023-05-29T03:26:46;100502.28;;;17.25;66.26
34237;BME280;20501;45.956;13.632;2023-05-29T03:29:11;100495.59;;;16.90;65.68
34237;BME280;20501;45.956;13.632;2023-05-29T03:31:37;100488.72;;;16.79;65.47
34237;BME280;20501;45.956;13.632;2023-05-29T03:34:02;100487.25;;;16.68;66.09
34237;BME280;20501;45.956;13.632;2023-05-29T03:36:27;100487.38;;;16.98;69.29
34237;BME280;20501;45.956;13.632;2023-05-29T03:38:53;100486.59;;;16.43;67.07
34237;BME280;20501;45.956;13.632;2023-05-29T03:41:19;100485.22;;;16.15;68.48
34237;BME280;20501;45.956;13.632;2023-05-29T03:43:44;100489.41;;;17.19;67.91
34237;BME280;20501;45.956;13.632;2023-05-29T03:46:10;100490.22;;;16.58;66.90
34237;BME280;20501;45.956;13.632;2023-05-29T03:48:35;100494.66;;;16.82;69.18
34237;BME280;20501;45.956;13.632;2023-05-29T03:51:01;100484.88;;;16.18;68.39
34237;BME280;20501;45.956;13.632;2023-05-29T03:53:26;100489.94;;;16.21;70.62
34237;BME280;20501;45.956;13.632;2023-05-29T03:55:52;100491.59;;;16.31;68.34
34237;BME280;20501;45.956;13.632;2023-05-29T03:58:17;100487.25;;;16.68;70.83
34237;BME280;20501;45.956;13.632;2023-05-29T04:00:43;100486.53;;;16.28;68.62
34237;BME280;20501;45.956;13.632;2023-05-29T04:03:08;100489.03;;;16.06;68.66
34237;BME280;20501;45.956;13.632;2023-05-29T04:05:33;100484.56;;;16.36;69.31
34237;BME280;20501;45.956;13.632;2023-05-29T04:08:00;100485.78;;;16.11;69.10
34237;BME280;20501;45.956;13.632;2023-05-29T04:10:26;100491.50;;;16.70;70.39
34237;BME280;20501;45.956;13.632;2023-05-29T04:12:51;100486.75;;;16.87;70.30
34237;BME280;20501;45.956;13.632;2023-05-29T04:15:17;100489.66;;;16.39;68.45
34237;BME280;20501;45.956;13.632;2023-05-29T04:17:42;100489.56;;;16.79;69.81
34237;BME280;20501;45.956;13.632;2023-05-29T04:20:08;100485.19;;;16.47;68.33
34237;BME280;20501;45.956;13.632;2023-05-29T04:22:35;100489.97;;;17.29;68.67
34237;BME280;20501;45.956;13.632;2023-05-29T04:25:01;100495.00;;;17.02;68.56
34237;BME280;20501;45.956;13.632;2023-05-29T04:27:29;100486.69;;;16.73;66.57
34237;BME280;20501;45.956;13.632;2023-05-29T04:29:57;100486.94;;;16.39;68.12
34237;BME280;20501;45.956;13.632;2023-05-29T04:32:23;100489.00;;;16.37;67.99
34237;BME280;20501;45.956;13.632;2023-05-29T04:34:48;100484.94;;;16.56;69.74
34237;BME280;20501;45.956;13.632;2023-05-29T04:37:14;100487.84;;;17.01;69.59
34237;BME280;20501;45.956;13.632;2023-05-29T04:39:40;100478.91;;;16.46;68.97
34237;BME280;20501;45.956;13.632;2023-05-29T04:42:05;100482.44;;;16.47;69.49
34237;BME280;20501;45.956;13.632;2023-05-29T04:44:31;100477.31;;;16.52;68.56
34237;BME280;20501;45.956;13.632;2023-05-29T04:46:56;100479.09;;;17.06;68.81
34237;BME280;20501;45.956;13.632;2023-05-29T04:49:22;100480.75;;;17.45;66.93
34237;BME280;20501;45.956;13.632;2023-05-29T04:51:48;100482.81;;;17.58;66.10
34237;BME280;20501;45.956;13.632;2023-05-29T04:54:13;100476.69;;;16.88;68.11
34237;BME280;20501;45.956;13.632;2023-05-29T04:56:39;100472.59;;;17.07;66.66
34237;BME280;20501;45.956;13.632;2023-05-29T04:59:07;100482.25;;;17.48;68.57
34237;BME280;20501;45.956;13.632;2023-05-29T05:01:33;100490.69;;;17.23;67.06
34237;BME280;20501;45.956;13.632;2023-05-29T05:03:59;100487.50;;;17.20;67.16
34237;BME280;20501;45.956;13.632;2023-05-29T05:06:25;100488.53;;;17.18;67.35
34237;BME280;20501;45.956;13.632;2023-05-29T05:08:51;100487.56;;;16.96;67.94
34237;BME280;20501;45.956;13.632;2023-05-29T05:11:18;100493.75;;;17.28;69.10
34237;BME280;20501;45.956;13.632;2023-05-29T05:13:43;100488.25;;;17.13;67.31
34237;BME280;20501;45.956;13.632;2023-05-29T05:16:09;100492.91;;;17.43;66.74
34237;BME280;20501;45.956;13.632;2023-05-29T05:18:36;100493.28;;;17.70;66.74
34237;BME280;20501;45.956;13.632;2023-05-29T05:21:02;100483.75;;;17.21;67.72
34237;BME280;20501;45.956;13.632;2023-05-29T05:23:29;100492.63;;;17.53;66.39
34237;BME280;20501;45.956;13.632;2023-05-29T05:25:55;100487.34;;;17.66;66.78
34237;BME280;20501;45.956;13.632;2023-05-29T05:28:20;100490.72;;;17.83;65.24
34237;BME280;20501;45.956;13.632;2023-05-29T05:30:46;100495.81;;;18.01;64.78
34237;BME280;20501;45.956;13.632;2023-05-29T05:33:11;100498.66;;;18.08;65.25
34237;BME280;20501;45.956;13.632;2023-05-29T05:35:37;100493.16;;;17.93;66.55
34237;BME280;20501;45.956;13.632;2023-05-29T05:38:03;100497.78;;;18.07;66.07
34237;BME280;20501;45.956;13.632;2023-05-29T05:40:28;100498.16;;;18.04;66.03
34237;BME280;20501;45.956;13.632;2023-05-29T05:42:53;100498.44;;;17.94;67.71
34237;BME280;20501;45.956;13.632;2023-05-29T05:45:19;100489.88;;;18.13;66.48
34237;BME280;20501;45.956;13.632;2023-05-29T05:47:46;100496.63;;;18.17;66.17
34237;BME280;20501;45.956;13.632;2023-05-29T05:50:11;100495.47;;;18.26;65.24
34237;BME280;20501;45.956;13.632;2023-05-29T05:52:37;100486.13;;;18.35;65.86
34237;BME280;20501;45.956;13.632;2023-05-29T05:55:02;100483.19;;;18.37;66.00
34237;BME280;20501;45.956;13.632;2023-05-29T05:57:28;100482.53;;;18.35;64.61
34237;BME280;20501;45.956;13.632;2023-05-29T05:59:54;100493.09;;;18.38;63.82
34237;BME280;20501;45.956;13.632;2023-05-29T06:02:19;100488.19;;;18.33;64.64
34237;BME280;20501;45.956;13.632;2023-05-29T06:04:44;100491.38;;;18.37;64.33
34237;BME280;20501;45.956;13.632;2023-05-29T06:07:10;100491.53;;;18.29;64.54
34237;BME280;20501;45.956;13.632;2023-05-29T06:09:37;100483.13;;;18.30;64.19
34237;BME280;20501;45.956;13.632;2023-05-29T06:12:02;100485.53;;;18.40;64.51
34237;BME280;20501;45.956;13.632;2023-05-29T06:14:28;100489.56;;;18.44;65.26
34237;BME280;20501;45.956;13.632;2023-05-29T06:16:53;100494.78;;;18.39;65.70
34237;BME280;20501;45.956;13.632;2023-05-29T06:19:19;100488.97;;;18.49;64.76
34237;BME280;20501;45.956;13.632;2023-05-29T06:21:45;100479.88;;;18.63;63.17
34237;BME280;20501;45.956;13.632;2023-05-29T06:24:11;100483.41;;;18.79;62.73
34237;BME280;20501;45.956;13.632;2023-05-29T06:26:37;100479.66;;;18.86;62.27
34237;BME280;20501;45.956;13.632;2023-05-29T06:29:02;100488.31;;;18.90;62.47
34237;BME280;20501;45.956;13.632;2023-05-29T06:31:28;100484.72;;;19.11;61.82
34237;BME280;20501;45.956;13.632;2023-05-29T06:33:54;100491.69;;;18.92;63.87
34237;BME280;20501;45.956;13.632;2023-05-29T06:36:20;100479.84;;;19.07;62.38
34237;BME280;20501;45.956;13.632;2023-05-29T06:38:49;100487.38;;;19.26;62.19
34237;BME280;20501;45.956;13.632;2023-05-29T06:41:15;100491.31;;;19.17;62.82
34237;BME280;20501;45.956;13.632;2023-05-29T06:43:40;100491.34;;;19.24;64.37
34237;BME280;20501;45.956;13.632;2023-05-29T06:46:06;100491.31;;;19.17;63.48
34237;BME280;20501;45.956;13.632;2023-05-29T06:48:34;100495.84;;;19.31;63.85
34237;BME280;20501;45.956;13.632;2023-05-29T06:51:01;100493.44;;;19.50;62.43
34237;BME280;20501;45.956;13.632;2023-05-29T06:53:26;100487.06;;;19.43;62.83
34237;BME280;20501;45.956;13.632;2023-05-29T06:55:52;100493.88;;;19.54;62.40
34237;BME280;20501;45.956;13.632;2023-05-29T06:58:18;100498.94;;;19.57;62.93
34237;BME280;20501;45.956;13.632;2023-05-29T07:00:43;100487.28;;;19.83;60.62
34237;BME280;20501;45.956;13.632;2023-05-29T07:03:09;100495.34;;;19.91;59.94
34237;BME280;20501;45.956;13.632;2023-05-29T07:05:34;100494.13;;;20.01;59.30
34237;BME280;20501;45.956;13.632;2023-05-29T07:07:59;100497.25;;;19.91;60.61
34237;BME280;20501;45.956;13.632;2023-05-29T07:10:25;100488.88;;;20.06;58.57
34237;BME280;20501;45.956;13.632;2023-05-29T07:12:50;100485.03;;;19.58;61.00
34237;BME280;20501;45.956;13.632;2023-05-29T07:15:16;100485.44;;;19.90;57.65
34237;BME280;20501;45.956;13.632;2023-05-29T07:17:41;100492.31;;;20.21;57.37
34237;BME280;20501;45.956;13.632;2023-05-29T07:20:07;100498.88;;;20.34;57.44
34237;BME280;20501;45.956;13.632;2023-05-29T07:22:33;100491.53;;;20.48;55.88
34237;BME280;20501;45.956;13.632;2023-05-29T07:24:59;100489.41;;;20.50;55.90
34237;BME280;20501;45.956;13.632;2023-05-29T07:27:25;100490.19;;;20.17;57.82
34237;BME280;20501;45.956;13.632;2023-05-29T07:29:50;100488.47;;;20.02;57.83
34237;BME280;20501;45.956;13.632;2023-05-29T07:32:16;100487.75;;;20.55;56.45
34237;BME280;20501;45.956;13.632;2023-05-29T07:34:41;100491.63;;;20.88;54.62
34237;BME280;20501;45.956;13.632;2023-05-29T07:37:07;100482.31;;;20.96;53.81
34237;BME280;20501;45.956;13.632;2023-05-29T07:39:34;100489.50;;;20.83;54.68
34237;BME280;20501;45.956;13.632;2023-05-29T07:42:01;100486.56;;;20.98;53.75
34237;BME280;20501;45.956;13.632;2023-05-29T07:44:27;100481.06;;;20.92;53.72
34237;BME280;20501;45.956;13.632;2023-05-29T07:46:52;100480.63;;;21.22;52.33
34237;BME280;20501;45.956;13.632;2023-05-29T07:49:19;100487.31;;;21.53;50.25
34237;BME280;20501;45.956;13.632;2023-05-29T07:51:45;100480.53;;;21.75;49.57
34237;BME280;20501;45.956;13.632;2023-05-29T07:54:10;100481.88;;;20.85;53.89
34237;BME280;20501;45.956;13.632;2023-05-29T07:56:36;100483.75;;;21.45;51.51
34237;BME280;20501;45.956;13.632;2023-05-29T07:59:02;100490.72;;;21.68;50.92
34237;BME280;20501;45.956;13.632;2023-05-29T08:01:28;100483.50;;;21.74;49.66
34237;BME280;20501;45.956;13.632;2023-05-29T08:03:54;100492.53;;;21.88;49.36
34237;BME280;20501;45.956;13.632;2023-05-29T08:06:20;100490.56;;;22.02;49.61
34237;BME280;20501;45.956;13.632;2023-05-29T08:08:46;100482.66;;;22.19;48.75
34237;BME280;20501;45.956;13.632;2023-05-29T08:11:11;100490.69;;;22.20;47.60
34237;BME280;20501;45.956;13.632;2023-05-29T08:13:37;100480.47;;;22.34;48.51
34237;BME280;20501;45.956;13.632;2023-05-29T08:16:03;100486.41;;;22.31;47.91
34237;BME280;20501;45.956;13.632;2023-05-29T08:18:30;100479.34;;;22.49;46.57
34237;BME280;20501;45.956;13.632;2023-05-29T08:20:56;100478.94;;;22.38;47.11
34237;BME280;20501;45.956;13.632;2023-05-29T08:23:22;100483.94;;;22.62;47.62
34237;BME280;20501;45.956;13.632;2023-05-29T08:25:47;100485.59;;;22.63;47.16
34237;BME280;20501;45.956;13.632;2023-05-29T08:28:14;100488.31;;;22.69;47.14
34237;BME280;20501;45.956;13.632;2023-05-29T08:30:40;100488.22;;;22.83;46.31
34237;BME280;20501;45.956;13.632;2023-05-29T08:33:05;100488.06;;;22.78;46.55
34237;BME280;20501;45.956;13.632;2023-05-29T08:35:30;100494.34;;;22.53;47.63
34237;BME280;20501;45.956;13.632;2023-05-29T08:37:56;100488.25;;;22.44;47.89
34237;BME280;20501;45.956;13.632;2023-05-29T08:40:21;100485.81;;;22.22;48.52
34237;BME280;20501;45.956;13.632;2023-05-29T08:42:52;100484.09;;;22.28;46.58
34237;BME280;20501;45.956;13.632;2023-05-29T08:45:22;100497.03;;;21.62;50.53
34237;BME280;20501;45.956;13.632;2023-05-29T08:47:51;100491.28;;;21.84;47.80
34237;BME280;20501;45.956;13.632;2023-05-29T08:50:18;100484.31;;;22.65;46.31
34237;BME280;20501;45.956;13.632;2023-05-29T08:52:44;100494.91;;;22.94;45.70
34237;BME280;20501;45.956;13.632;2023-05-29T08:55:10;100484.50;;;22.96;45.59
34237;BME280;20501;45.956;13.632;2023-05-29T08:57:36;100485.41;;;22.90;45.14
34237;BME280;20501;45.956;13.632;2023-05-29T09:00:04;100486.44;;;22.24;47.80
34237;BME280;20501;45.956;13.632;2023-05-29T09:02:41;100488.22;;;23.08;44.51
34237;BME280;20501;45.956;13.632;2023-05-29T09:05:06;100480.66;;;22.97;45.45
34237;BME280;20501;45.956;13.632;2023-05-29T09:07:33;100490.06;;;23.21;47.03
34237;BME280;20501;45.956;13.632;2023-05-29T09:09:59;100487.00;;;22.40;48.92
34237;BME280;20501;45.956;13.632;2023-05-29T09:12:26;100486.84;;;23.17;45.53
34237;BME280;20501;45.956;13.632;2023-05-29T09:14:51;100487.91;;;23.16;43.61
34237;BME280;20501;45.956;13.632;2023-05-29T09:17:17;100480.03;;;23.27;44.81
34237;BME280;20501;45.956;13.632;2023-05-29T09:19:43;100480.34;;;22.86;46.62
34237;BME280;20501;45.956;13.632;2023-05-29T09:22:12;100481.53;;;23.23;45.04
34237;BME280;20501;45.956;13.632;2023-05-29T09:24:46;100479.38;;;23.50;41.30
34237;BME280;20501;45.956;13.632;2023-05-29T09:27:13;100482.94;;;23.32;43.46
34237;BME280;20501;45.956;13.632;2023-05-29T09:32:09;100478.22;;;22.88;45.17
34237;BME280;20501;45.956;13.632;2023-05-29T09:34:35;100473.09;;;22.92;43.66
34237;BME280;20501;45.956;13.632;2023-05-29T09:37:02;100475.59;;;23.63;41.90
34237;BME280;20501;45.956;13.632;2023-05-29T09:39:46;100470.59;;;23.34;42.98
34237;BME280;20501;45.956;13.632;2023-05-29T09:42:13;100473.06;;;23.80;42.22
34237;BME280;20501;45.956;13.632;2023-05-29T09:44:43;100473.69;;;24.01;41.55
34237;BME280;20501;45.956;13.632;2023-05-29T09:47:14;100470.94;;;24.01;40.75
34237;BME280;20501;45.956;13.632;2023-05-29T09:49:42;100476.53;;;23.75;42.76
34237;BME280;20501;45.956;13.632;2023-05-29T09:52:11;100483.94;;;23.93;40.55
34237;BME280;20501;45.956;13.632;2023-05-29T09:54:41;100484.66;;;24.07;40.95
34237;BME280;20501;45.956;13.632;2023-05-29T09:57:07;100471.38;;;24.16;40.60
34237;BME280;20501;45.956;13.632;2023-05-29T09:59:35;100474.97;;;24.17;40.65
34237;BME280;20501;45.956;13.632;2023-05-29T10:02:03;100475.44;;;24.14;40.92
34237;BME280;20501;45.956;13.632;2023-05-29T10:04:32;100477.16;;;23.96;42.16
34237;BME280;20501;45.956;13.632;2023-05-29T10:07:00;100473.47;;;24.33;40.09
34237;BME280;20501;45.956;13.632;2023-05-29T10:09:30;100472.22;;;24.47;39.74
34237;BME280;20501;45.956;13.632;2023-05-29T10:11:58;100469.41;;;23.86;41.76
34237;BME280;20501;45.956;13.632;2023-05-29T10:14:29;100471.75;;;24.20;40.39
34237;BME280;20501;45.956;13.632;2023-05-29T10:16:58;100467.69;;;24.22;40.66
34237;BME280;20501;45.956;13.632;2023-05-29T10:19:29;100467.75;;;24.34;38.80
34237;BME280;20501;45.956;13.632;2023-05-29T10:21:55;100463.78;;;24.42;39.72
34237;BME280;20501;45.956;13.632;2023-05-29T10:24:22;100467.97;;;24.33;39.20
34237;BME280;20501;45.956;13.632;2023-05-29T10:26:49;100467.75;;;24.34;40.21
34237;BME280;20501;45.956;13.632;2023-05-29T10:29:28;100461.81;;;24.31;39.34
34237;BME280;20501;45.956;13.632;2023-05-29T10:32:01;100458.19;;;24.18;39.13
34237;BME280;20501;45.956;13.632;2023-05-29T10:40:04;100438.88;;;24.18;39.56
34237;BME280;20501;45.956;13.632;2023-05-29T10:42:44;100447.22;;;24.42;39.50
34237;BME280;20501;45.956;13.632;2023-05-29T10:45:10;100449.69;;;24.62;39.13
34237;BME280;20501;45.956;13.632;2023-05-29T10:47:38;100445.13;;;24.56;39.57
34237;BME280;20501;45.956;13.632;2023-05-29T10:50:05;100443.28;;;24.50;39.37
34237;BME280;20501;45.956;13.632;2023-05-29T10:52:32;100440.06;;;24.53;39.04
34237;BME280;20501;45.956;13.632;2023-05-29T10:54:57;100438.78;;;24.67;38.39
34237;BME280;20501;45.956;13.632;2023-05-29T10:57:24;100443.66;;;24.53;39.80
34237;BME280;20501;45.956;13.632;2023-05-29T11:00:17;100434.16;;;24.07;41.01
34237;BME280;20501;45.956;13.632;2023-05-29T11:02:45;100439.38;;;24.69;39.75
34237;BME280;20501;45.956;13.632;2023-05-29T11:07:51;100417.72;;;24.42;39.16
34237;BME280;20501;45.956;13.632;2023-05-29T11:10:54;100426.81;;;25.09;39.11
34237;BME280;20501;45.956;13.632;2023-05-29T11:13:34;100425.75;;;24.98;37.79
34237;BME280;20501;45.956;13.632;2023-05-29T11:30:48;100407.56;;;25.26;37.14
34237;BME280;20501;45.956;13.632;2023-05-29T11:33:27;100412.28;;;25.26;36.86
34237;BME280;20501;45.956;13.632;2023-05-29T11:35:56;100407.00;;;24.77;37.58
34237;BME280;20501;45.956;13.632;2023-05-29T11:38:24;100405.06;;;24.77;36.81
34237;BME280;20501;45.956;13.632;2023-05-29T11:40:50;100402.31;;;24.77;37.43
34237;BME280;20501;45.956;13.632;2023-05-29T11:43:15;100403.69;;;25.39;37.22
34237;BME280;20501;45.956;13.632;2023-05-29T11:45:41;100389.81;;;25.10;37.51
34237;BME280;20501;45.956;13.632;2023-05-29T11:48:06;100390.09;;;24.42;39.75
34237;BME280;20501;45.956;13.632;2023-05-29T11:50:33;100392.81;;;25.09;38.36
34237;BME280;20501;45.956;13.632;2023-05-29T11:52:59;100396.66;;;25.08;37.25
34237;BME280;20501;45.956;13.632;2023-05-29T11:55:26;100388.13;;;25.21;37.40
34237;BME280;20501;45.956;13.632;2023-05-29T11:57:59;100387.41;;;25.26;36.68
34237;BME280;20501;45.956;13.632;2023-05-29T12:00:26;100385.13;;;24.99;38.21
34237;BME280;20501;45.956;13.632;2023-05-29T12:02:51;100389.56;;;25.24;37.81
34237;BME280;20501;45.956;13.632;2023-05-29T12:05:17;100387.25;;;25.44;37.04
34237;BME280;20501;45.956;13.632;2023-05-29T12:07:54;100392.16;;;25.54;36.71
34237;BME280;20501;45.956;13.632;2023-05-29T12:10:22;100379.78;;;25.45;36.39
34237;BME280;20501;45.956;13.632;2023-05-29T12:12:58;100385.19;;;25.52;36.81
34237;BME280;20501;45.956;13.632;2023-05-29T12:15:24;100370.28;;;25.53;34.89
34237;BME280;20501;45.956;13.632;2023-05-29T12:17:50;100368.06;;;25.02;35.45
34237;BME280;20501;45.956;13.632;2023-05-29T12:20:17;100370.53;;;25.51;36.11
34237;BME280;20501;45.956;13.632;2023-05-29T12:22:44;100363.78;;;25.59;35.39
34237;BME280;20501;45.956;13.632;2023-05-29T12:25:15;100362.88;;;25.70;35.54
34237;BME280;20501;45.956;13.632;2023-05-29T12:27:42;100360.94;;;25.30;36.13
34237;BME280;20501;45.956;13.632;2023-05-29T12:30:10;100352.97;;;25.33;36.27
34237;BME280;20501;45.956;13.632;2023-05-29T12:32:39;100362.19;;;25.63;35.98
34237;BME280;20501;45.956;13.632;2023-05-29T12:35:24;100354.78;;;25.52;36.70
34237;BME280;20501;45.956;13.632;2023-05-29T12:38:01;100357.75;;;25.62;36.02
34237;BME280;20501;45.956;13.632;2023-05-29T12:40:28;100359.13;;;25.47;36.92
34237;BME280;20501;45.956;13.632;2023-05-29T12:42:55;100358.00;;;25.60;36.31
34237;BME280;20501;45.956;13.632;2023-05-29T12:45:21;100356.38;;;25.76;35.92
34237;BME280;20501;45.956;13.632;2023-05-29T12:50:26;100348.63;;;25.61;35.52
34237;BME280;20501;45.956;13.632;2023-05-29T12:53:00;100342.88;;;25.39;37.38
34237;BME280;20501;45.956;13.632;2023-05-29T12:55:27;100348.06;;;25.47;37.36
34237;BME280;20501;45.956;13.632;2023-05-29T12:57:54;100347.88;;;25.66;36.44
34237;BME280;20501;45.956;13.632;2023-05-29T13:00:20;100343.28;;;25.72;35.82
34237;BME280;20501;45.956;13.632;2023-05-29T13:02:47;100336.34;;;25.69;35.83
34237;BME280;20501;45.956;13.632;2023-05-29T13:05:13;100337.28;;;25.75;35.13
34237;BME280;20501;45.956;13.632;2023-05-29T13:07:39;100336.13;;;25.88;35.98
34237;BME280;20501;45.956;13.632;2023-05-29T13:10:05;100338.59;;;25.72;34.95
34237;BME280;20501;45.956;13.632;2023-05-29T13:12:31;100330.28;;;25.72;35.47